Time;durP1;ratioP1;P1;durP2;ratioP2;P2;SDS_P1;SDS_P2;PMS_P1;PMS_P2;Temp;Humidity;BMP_temperature;BMP_pressure;BME280_temperature;BME280_humidity;BME280_pressure;Samples;Min_cycle;Max_cycle;Signal;HPM_P1;HPM_P2
2022/03/09 00:00:18;;;;;;;19.77;10.60;;;2.30;82.20;;;;;;5085316;28;20121;-71
2022/03/09 00:02:44;;;;;;;24.50;12.82;;;2.20;82.10;;;;;;5075259;28;20081;-70
2022/03/09 00:05:10;;;;;;;19.80;11.20;;;2.30;81.60;;;;;;5081660;28;20043;-70
2022/03/09 00:07:36;;;;;;;20.05;11.73;;;2.40;82.00;;;;;;5082416;28;20427;-70
2022/03/09 00:10:03;;;;;;;21.60;10.60;;;2.30;82.20;;;;;;5077503;28;20075;-70
2022/03/09 00:12:28;;;;;;;20.67;9.38;;;2.30;81.60;;;;;;5077355;28;20028;-70
2022/03/09 00:14:54;;;;;;;22.05;11.65;;;2.00;82.10;;;;;;5080755;28;20028;-70
2022/03/09 00:17:20;;;;;;;23.38;10.68;;;1.90;82.80;;;;;;5082710;28;20034;-70
2022/03/09 00:19:45;;;;;;;23.05;11.45;;;1.80;82.80;;;;;;5084198;28;20027;-71
2022/03/09 00:22:11;;;;;;;21.48;10.23;;;1.80;83.00;;;;;;5090518;28;20205;-70
2022/03/09 00:24:37;;;;;;;23.23;11.25;;;1.70;83.10;;;;;;5091275;28;20127;-70
2022/03/09 00:27:03;;;;;;;25.60;12.10;;;1.70;83.30;;;;;;5090485;28;20363;-70
2022/03/09 00:29:28;;;;;;;21.02;11.05;;;1.70;83.30;;;;;;5092312;28;20465;-70
2022/03/09 00:31:54;;;;;;;24.33;11.95;;;1.70;84.00;;;;;;5090152;28;20398;-70
2022/03/09 00:34:20;;;;;;;19.73;11.27;;;1.70;83.50;;;;;;5090760;28;20032;-70
2022/03/09 00:36:46;;;;;;;21.17;10.90;;;1.80;83.30;;;;;;5090661;28;20054;-71
2022/03/09 00:39:12;;;;;;;22.92;11.05;;;1.90;83.20;;;;;;5090699;28;20062;-70
2022/03/09 00:41:38;;;;;;;23.17;12.23;;;1.70;83.60;;;;;;5091571;28;20415;-70
2022/03/09 00:44:04;;;;;;;26.85;13.20;;;1.90;83.80;;;;;;5089141;28;20574;-70
2022/03/09 00:46:32;;;;;;;23.58;12.50;;;1.70;83.60;;;;;;5091281;28;20106;-71
2022/03/09 00:48:57;;;;;;;24.42;11.68;;;1.80;83.70;;;;;;5089869;28;20106;-71
2022/03/09 00:51:23;;;;;;;24.60;11.70;;;1.80;83.60;;;;;;5084008;28;20475;-70
2022/03/09 00:53:49;;;;;;;18.58;10.45;;;1.90;83.00;;;;;;5086840;28;20494;-70
2022/03/09 00:56:15;;;;;;;23.48;11.57;;;2.00;82.60;;;;;;5091049;28;20040;-70
2022/03/09 00:58:42;;;;;;;21.35;12.15;;;2.10;82.60;;;;;;5090567;28;20039;-70
2022/03/09 01:01:09;;;;;;;21.95;11.20;;;2.00;82.70;;;;;;5090534;28;20471;-71
2022/03/09 01:03:35;;;;;;;22.77;10.65;;;1.50;83.50;;;;;;5090269;28;20032;-71
2022/03/09 01:06:00;;;;;;;20.65;11.88;;;1.60;84.20;;;;;;5090597;28;20176;-70
2022/03/09 01:08:26;;;;;;;25.73;12.55;;;1.70;83.50;;;;;;5089084;28;20100;-70
2022/03/09 01:10:52;;;;;;;25.58;12.15;;;1.70;83.60;;;;;;5097133;28;20086;-70
2022/03/09 01:13:18;;;;;;;21.67;12.00;;;1.80;83.60;;;;;;5090128;28;20485;-70
2022/03/09 01:15:44;;;;;;;19.38;10.45;;;1.80;83.40;;;;;;5090039;28;20043;-71
2022/03/09 01:18:09;;;;;;;20.98;10.13;;;1.60;83.60;;;;;;5090910;28;20481;-71
2022/03/09 01:20:35;;;;;;;23.88;11.30;;;1.50;84.10;;;;;;5094305;28;20046;-71
2022/03/09 01:23:01;;;;;;;24.30;11.30;;;1.60;84.20;;;;;;5090089;28;20032;-71
2022/03/09 01:25:26;;;;;;;21.00;10.52;;;1.50;84.10;;;;;;5088704;28;20028;-71
2022/03/09 01:27:52;;;;;;;23.60;11.65;;;1.40;84.20;;;;;;5086551;28;20032;-70
2022/03/09 01:30:18;;;;;;;23.48;11.82;;;1.30;84.70;;;;;;5090020;28;20028;-70
2022/03/09 01:32:44;;;;;;;22.08;10.95;;;1.10;85.10;;;;;;5089627;28;20047;-71
2022/03/09 01:35:09;;;;;;;23.45;11.82;;;1.20;85.10;;;;;;5086801;28;20111;-71
2022/03/09 01:37:35;;;;;;;23.08;12.38;;;1.20;85.10;;;;;;5090126;28;20104;-71
2022/03/09 01:40:01;;;;;;;19.05;11.25;;;1.10;85.30;;;;;;5096501;28;20039;-71
2022/03/09 01:42:26;;;;;;;21.10;12.80;;;1.00;85.70;;;;;;5087478;28;20128;-70
2022/03/09 01:44:53;;;;;;;26.02;11.38;;;1.10;85.70;;;;;;5090225;28;20059;-71
2022/03/09 01:47:18;;;;;;;23.20;12.20;;;1.40;85.00;;;;;;5089829;28;20103;-71
2022/03/09 01:49:44;;;;;;;19.60;10.52;;;1.60;84.20;;;;;;5083035;28;20115;-70
2022/03/09 01:52:12;;;;;;;21.17;11.48;;;1.50;84.20;;;;;;5089901;28;20044;-71
2022/03/09 01:54:39;;;;;;;22.75;11.40;;;1.40;84.60;;;;;;5090876;28;20032;-71
2022/03/09 01:57:05;;;;;;;24.02;11.77;;;1.50;84.30;;;;;;5087245;28;20028;-71
2022/03/09 01:59:31;;;;;;;26.80;11.88;;;1.10;85.00;;;;;;5090630;28;20048;-70
2022/03/09 02:01:57;;;;;;;21.08;11.75;;;0.80;86.00;;;;;;5092066;28;20433;-70
2022/03/09 02:04:23;;;;;;;23.52;12.40;;;0.70;86.60;;;;;;5094396;28;20050;-70
2022/03/09 02:06:48;;;;;;;23.88;12.05;;;0.60;87.10;;;;;;5093414;28;20099;-71
2022/03/09 02:11:58;;;;;;;24.67;10.80;;;0.60;87.20;;;;;;5090942;28;20086;-70
2022/03/09 02:14:27;;;;;;;25.13;11.95;;;0.80;86.80;;;;;;5093387;28;20281;-70
2022/03/09 02:16:53;;;;;;;19.52;10.57;;;0.90;86.90;;;;;;5088094;28;20086;-70
2022/03/09 02:19:19;;;;;;;23.15;12.57;;;0.70;87.30;;;;;;5092001;28;20035;-70
2022/03/09 02:21:45;;;;;;;20.88;10.88;;;0.60;87.70;;;;;;5093674;28;20095;-71
2022/03/09 02:24:11;;;;;;;27.60;12.45;;;0.70;87.40;;;;;;5093390;28;20108;-70
2022/03/09 02:26:37;;;;;;;27.15;12.93;;;1.00;86.60;;;;;;5093648;28;20032;-70
2022/03/09 02:29:03;;;;;;;21.73;13.05;;;1.10;85.80;;;;;;5098030;28;20114;-70
2022/03/09 02:31:29;;;;;;;22.75;11.55;;;1.00;86.00;;;;;;5093734;28;20107;-70
2022/03/09 02:33:54;;;;;;;24.42;12.50;;;1.00;86.30;;;;;;5091697;28;20032;-70
2022/03/09 02:36:20;;;;;;;21.27;10.63;;;0.90;86.30;;;;;;5093795;28;20035;-71
2022/03/09 02:38:46;;;;;;;24.85;13.52;;;0.90;86.80;;;;;;5093273;28;20031;-70
2022/03/09 02:41:11;;;;;;;27.80;12.95;;;1.00;86.30;;;;;;5093991;28;20501;-70
2022/03/09 02:43:37;;;;;;;25.00;12.38;;;1.00;86.60;;;;;;5091501;28;20148;-70
2022/03/09 02:46:03;;;;;;;22.02;11.95;;;1.00;86.10;;;;;;5093131;28;20103;-71
2022/03/09 02:48:28;;;;;;;21.77;11.63;;;0.70;87.50;;;;;;5085574;28;20035;-70
2022/03/09 02:50:54;;;;;;;20.92;11.60;;;0.50;88.20;;;;;;5079858;28;20028;-71
2022/03/09 02:53:20;;;;;;;22.88;11.48;;;0.50;87.80;;;;;;5093259;28;20032;-71
2022/03/09 02:55:45;;;;;;;23.40;11.55;;;0.60;88.00;;;;;;5095911;28;20032;-70
2022/03/09 02:58:11;;;;;;;24.10;11.00;;;0.60;87.90;;;;;;5093271;28;20024;-70
2022/03/09 03:00:37;;;;;;;24.52;12.23;;;0.70;87.90;;;;;;5092710;28;20109;-70
2022/03/09 03:03:02;;;;;;;25.83;11.85;;;0.80;87.70;;;;;;5093035;28;20050;-70
2022/03/09 03:05:28;;;;;;;23.80;10.35;;;0.70;87.70;;;;;;5093373;28;20040;-71
2022/03/09 03:07:54;;;;;;;23.13;11.60;;;0.70;87.80;;;;;;5091192;28;20039;-70
2022/03/09 03:10:19;;;;;;;24.88;12.02;;;0.70;87.80;;;;;;5093017;28;20422;-70
2022/03/09 03:12:45;;;;;;;22.98;12.35;;;0.90;87.20;;;;;;5092595;28;20021;-70
2022/03/09 03:15:11;;;;;;;23.17;11.85;;;0.90;87.70;;;;;;5093026;28;20055;-71
2022/03/09 03:17:37;;;;;;;24.80;11.98;;;0.70;87.80;;;;;;5092235;28;20115;-71
2022/03/09 03:20:06;;;;;;;26.75;13.23;;;0.80;87.30;;;;;;5093122;28;20043;-71
2022/03/09 03:22:32;;;;;;;21.25;11.82;;;0.70;87.50;;;;;;5092284;28;20028;-70
2022/03/09 03:24:57;;;;;;;19.73;11.40;;;0.70;87.70;;;;;;5086893;28;20035;-71
2022/03/09 03:27:23;;;;;;;24.60;11.85;;;0.70;87.70;;;;;;5090504;28;20086;-71
2022/03/09 03:29:49;;;;;;;24.13;11.85;;;0.70;87.60;;;;;;5092802;28;20056;-70
2022/03/09 03:32:14;;;;;;;21.42;12.20;;;0.60;88.30;;;;;;5089483;28;20030;-70
2022/03/09 03:34:40;;;;;;;22.60;12.52;;;0.30;89.00;;;;;;5093995;28;20168;-70
2022/03/09 03:37:06;;;;;;;22.63;12.68;;;0.60;88.90;;;;;;5091242;28;20032;-71
2022/03/09 03:39:32;;;;;;;25.40;13.00;;;0.60;88.50;;;;;;5094832;28;20032;-71
2022/03/09 03:41:57;;;;;;;35.15;14.25;;;0.60;88.20;;;;;;5086372;28;20037;-70
2022/03/09 03:44:23;;;;;;;27.63;13.43;;;0.60;88.30;;;;;;5092450;28;20051;-71
2022/03/09 03:46:49;;;;;;;27.30;14.07;;;0.40;88.60;;;;;;5091293;28;20339;-71
2022/03/09 03:49:14;;;;;;;25.55;12.43;;;0.50;88.80;;;;;;5091282;28;20028;-71
2022/03/09 03:51:40;;;;;;;24.47;11.77;;;0.50;88.90;;;;;;5091540;28;20032;-70
2022/03/09 03:54:06;;;;;;;23.35;11.88;;;0.50;88.80;;;;;;5091831;28;20111;-70
2022/03/09 03:56:31;;;;;;;23.08;12.38;;;0.50;88.40;;;;;;5091731;28;20081;-71
2022/03/09 03:58:57;;;;;;;20.97;10.60;;;0.60;88.50;;;;;;5089644;28;20036;-70
2022/03/09 04:01:23;;;;;;;24.40;12.68;;;0.60;88.90;;;;;;5091200;28;20032;-69
2022/03/09 04:03:48;;;;;;;26.23;12.35;;;0.60;88.30;;;;;;5076895;28;20044;-69
2022/03/09 04:06:14;;;;;;;26.13;14.10;;;0.60;88.40;;;;;;5084295;28;20086;-69
2022/03/09 04:08:40;;;;;;;22.35;12.20;;;0.70;88.10;;;;;;5084624;28;20036;-69
2022/03/09 04:11:05;;;;;;;27.67;14.02;;;0.70;88.00;;;;;;5081097;28;20053;-69
2022/03/09 04:13:31;;;;;;;27.38;13.27;;;0.60;88.10;;;;;;5084449;28;20039;-69
2022/03/09 04:15:56;;;;;;;24.23;11.75;;;0.60;88.50;;;;;;5079480;28;20932;-69
2022/03/09 04:18:22;;;;;;;19.58;10.77;;;0.60;88.40;;;;;;5084950;28;20270;-69
2022/03/09 04:20:48;;;;;;;28.40;12.35;;;0.70;88.20;;;;;;5086684;28;20090;-69
2022/03/09 04:23:13;;;;;;;26.27;12.93;;;0.60;88.30;;;;;;5086288;28;20040;-69
2022/03/09 04:25:39;;;;;;;24.88;12.13;;;0.60;88.40;;;;;;5086965;28;20035;-69
2022/03/09 04:28:05;;;;;;;26.90;13.15;;;0.50;88.80;;;;;;5086964;28;20031;-69
2022/03/09 04:30:32;;;;;;;23.45;12.57;;;0.40;89.20;;;;;;5086125;28;20081;-69
2022/03/09 04:32:58;;;;;;;25.58;12.98;;;0.30;89.90;;;;;;5084944;28;20525;-69
2022/03/09 04:35:24;;;;;;;26.90;13.18;;;0.30;89.80;;;;;;5086755;28;20177;-69
2022/03/09 04:37:49;;;;;;;23.98;12.00;;;0.30;89.60;;;;;;5086580;28;20051;-69
2022/03/09 04:40:16;;;;;;;28.85;12.75;;;0.20;89.70;;;;;;5085304;28;20625;-69
2022/03/09 04:42:42;;;;;;;27.67;13.73;;;0.20;90.00;;;;;;5083687;28;20024;-69
2022/03/09 04:45:08;;;;;;;27.40;13.38;;;0.20;90.00;;;;;;5086468;28;20070;-69
2022/03/09 04:47:34;;;;;;;24.90;14.00;;;0.40;89.60;;;;;;5083452;28;20070;-69
2022/03/09 04:50:00;;;;;;;25.15;13.98;;;0.50;89.10;;;;;;5075190;28;20599;-69
2022/03/09 04:52:26;;;;;;;24.80;13.30;;;0.30;89.20;;;;;;5082865;28;20035;-69
2022/03/09 04:54:51;;;;;;;23.10;12.38;;;0.10;90.00;;;;;;5086811;28;20717;-69
2022/03/09 04:57:17;;;;;;;27.38;12.73;;;-0.10;90.50;;;;;;5086074;28;21101;-69
2022/03/09 04:59:43;;;;;;;28.50;12.02;;;0.10;90.40;;;;;;5082197;28;20052;-69
2022/03/09 05:02:09;;;;;;;30.48;14.07;;;0.10;90.10;;;;;;5081990;28;20066;-69
2022/03/09 05:04:35;;;;;;;25.17;12.95;;;0.20;90.20;;;;;;5080475;28;20086;-69
2022/03/09 05:07:01;;;;;;;26.05;12.90;;;0.40;90.00;;;;;;5078251;28;20033;-69
2022/03/09 05:09:26;;;;;;;25.55;13.50;;;0.50;89.60;;;;;;5082612;28;20087;-69
2022/03/09 05:11:52;;;;;;;26.60;13.02;;;0.60;89.10;;;;;;5081152;28;20130;-69
2022/03/09 05:14:18;;;;;;;25.52;12.82;;;0.50;89.20;;;;;;5082991;28;20024;-69
2022/03/09 05:16:44;;;;;;;27.63;13.93;;;0.50;89.60;;;;;;5083357;28;20036;-69
2022/03/09 05:19:09;;;;;;;28.63;14.50;;;0.50;89.50;;;;;;5082848;28;20031;-69
2022/03/09 05:21:35;;;;;;;28.02;13.73;;;0.70;88.80;;;;;;5082611;28;20024;-69
2022/03/09 05:24:01;;;;;;;23.60;13.15;;;0.70;88.80;;;;;;5080539;28;20533;-69
2022/03/09 05:26:26;;;;;;;27.08;13.70;;;0.40;90.00;;;;;;5083267;28;20028;-69
2022/03/09 05:28:53;;;;;;;24.27;12.93;;;0.40;90.00;;;;;;5078065;28;20047;-69
2022/03/09 05:31:19;;;;;;;26.98;14.82;;;0.40;90.00;;;;;;5073383;28;20028;-69
2022/03/09 05:33:45;;;;;;;26.15;13.48;;;0.30;90.10;;;;;;5063740;28;20035;-69
2022/03/09 05:36:10;;;;;;;28.08;12.88;;;0.40;90.20;;;;;;5070123;28;20467;-69
2022/03/09 05:38:36;;;;;;;26.90;12.60;;;0.30;90.00;;;;;;5067189;28;20474;-69
2022/03/09 05:41:02;;;;;;;26.48;13.48;;;0.30;90.20;;;;;;5068316;28;20612;-69
2022/03/09 05:43:27;;;;;;;25.55;11.90;;;0.20;90.00;;;;;;5083055;28;20072;-69
2022/03/09 05:45:53;;;;;;;23.90;13.38;;;0.20;90.40;;;;;;5082198;28;20156;-70
2022/03/09 05:48:19;;;;;;;28.55;12.75;;;0.30;90.10;;;;;;5082545;28;20443;-69
2022/03/09 05:50:44;;;;;;;21.13;12.38;;;0.30;90.30;;;;;;5080698;28;20055;-69
2022/03/09 05:53:10;;;;;;;24.65;12.90;;;0.40;90.30;;;;;;5082873;28;20086;-69
2022/03/09 05:55:36;;;;;;;24.50;13.10;;;0.70;89.10;;;;;;5082202;28;20035;-69
2022/03/09 05:58:02;;;;;;;23.13;13.00;;;0.70;89.00;;;;;;5081154;28;20051;-69
2022/03/09 06:00:27;;;;;;;25.98;13.40;;;0.50;89.50;;;;;;5081765;28;20533;-69
2022/03/09 06:02:53;;;;;;;26.23;13.18;;;0.60;89.50;;;;;;5081748;28;20032;-70
2022/03/09 06:05:19;;;;;;;27.83;14.80;;;0.40;89.90;;;;;;5074554;28;20032;-69
2022/03/09 06:07:45;;;;;;;29.63;13.48;;;0.70;89.50;;;;;;5064677;28;20050;-70
2022/03/09 06:10:11;;;;;;;24.92;13.10;;;0.60;89.00;;;;;;5067580;28;20028;-70
2022/03/09 06:12:36;;;;;;;25.90;13.07;;;0.50;89.10;;;;;;5082537;28;20130;-69
2022/03/09 06:15:02;;;;;;;28.10;13.23;;;0.20;90.10;;;;;;5076103;28;20089;-69
2022/03/09 06:17:28;;;;;;;27.70;14.30;;;0.10;90.40;;;;;;5081275;28;20347;-69
2022/03/09 06:19:53;;;;;;;29.27;14.57;;;0.30;90.50;;;;;;5082809;28;20035;-69
2022/03/09 06:22:19;;;;;;;27.15;14.57;;;0.70;89.90;;;;;;5082653;28;20100;-69
2022/03/09 06:24:44;;;;;;;29.38;15.85;;;0.60;89.70;;;;;;5082589;28;20050;-69
2022/03/09 06:27:10;;;;;;;31.95;15.00;;;0.60;90.00;;;;;;5084197;28;20036;-69
2022/03/09 06:29:36;;;;;;;28.95;14.85;;;0.60;89.80;;;;;;5084754;28;20063;-71
2022/03/09 06:32:02;;;;;;;28.73;12.82;;;0.60;90.10;;;;;;5078934;28;20493;-70
2022/03/09 06:34:28;;;;;;;22.92;13.25;;;0.60;90.30;;;;;;5081111;28;20032;-71
2022/03/09 06:36:53;;;;;;;23.67;13.82;;;0.40;90.80;;;;;;5081359;28;20063;-70
2022/03/09 06:39:20;;;;;;;25.17;13.35;;;0.50;90.80;;;;;;5082910;28;20471;-69
2022/03/09 06:41:46;;;;;;;30.80;15.73;;;0.70;90.20;;;;;;5082796;28;20024;-70
2022/03/09 06:44:14;;;;;;;26.67;13.98;;;0.80;89.80;;;;;;5080857;28;20109;-70
2022/03/09 06:46:41;;;;;;;22.00;12.90;;;0.90;89.60;;;;;;5071214;28;20115;-70
2022/03/09 06:49:07;;;;;;;25.27;13.10;;;1.10;88.50;;;;;;5083137;28;20032;-70
2022/03/09 06:51:32;;;;;;;26.98;13.02;;;1.20;88.00;;;;;;5085788;28;20035;-70
2022/03/09 06:53:58;;;;;;;25.88;14.88;;;1.10;88.60;;;;;;5085195;28;20028;-70
2022/03/09 06:56:25;;;;;;;29.33;13.45;;;1.00;89.10;;;;;;5086475;28;20038;-69
2022/03/09 06:58:50;;;;;;;25.63;13.77;;;1.00;88.90;;;;;;5086213;28;20949;-70
2022/03/09 07:01:16;;;;;;;29.80;13.95;;;1.10;89.00;;;;;;5079821;28;20135;-70
2022/03/09 07:03:42;;;;;;;26.35;14.43;;;1.20;88.40;;;;;;5068595;28;20066;-70
2022/03/09 07:06:08;;;;;;;27.10;13.38;;;1.20;88.30;;;;;;5067661;28;20036;-70
2022/03/09 07:08:33;;;;;;;29.27;13.63;;;1.20;88.10;;;;;;5078391;28;20032;-69
2022/03/09 07:10:59;;;;;;;29.50;14.75;;;1.10;88.60;;;;;;5085727;28;20036;-70
2022/03/09 07:13:26;;;;;;;25.38;12.85;;;1.30;87.90;;;;;;5086013;28;20028;-70
2022/03/09 07:15:52;;;;;;;27.20;14.55;;;1.40;87.10;;;;;;5084924;28;20556;-70
2022/03/09 07:18:17;;;;;;;28.70;14.52;;;1.60;86.50;;;;;;5079321;28;20063;-70
2022/03/09 07:20:43;;;;;;;26.08;13.73;;;1.60;86.30;;;;;;5085571;28;20105;-70
2022/03/09 07:23:09;;;;;;;25.05;14.13;;;1.70;86.20;;;;;;5079351;28;20118;-70
2022/03/09 07:25:34;;;;;;;36.35;17.27;;;1.70;86.80;;;;;;5079503;28;20093;-70
2022/03/09 07:28:01;;;;;;;29.88;14.93;;;1.20;88.50;;;;;;5084908;28;20042;-70
2022/03/09 07:30:26;;;;;;;38.97;15.23;;;1.30;88.70;;;;;;5084326;28;20258;-69
2022/03/09 07:32:52;;;;;;;39.40;15.50;;;1.60;87.00;;;;;;5083675;28;20470;-70
2022/03/09 07:35:18;;;;;;;33.03;15.80;;;1.70;87.30;;;;;;5084786;28;20028;-70
2022/03/09 07:37:43;;;;;;;30.20;13.77;;;1.70;87.10;;;;;;5085271;28;20023;-71
2022/03/09 07:40:10;;;;;;;25.98;14.15;;;1.70;87.80;;;;;;5076411;28;20060;-71
2022/03/09 07:42:35;;;;;;;28.77;13.73;;;1.90;86.10;;;;;;5084371;28;20114;-69
2022/03/09 07:45:03;;;;;;;36.83;14.50;;;2.10;85.20;;;;;;5085152;28;20124;-70
2022/03/09 07:47:29;;;;;;;30.23;16.00;;;2.20;84.90;;;;;;5076224;28;20035;-70
2022/03/09 07:49:54;;;;;;;33.78;16.27;;;1.70;88.40;;;;;;5085756;28;20025;-71
2022/03/09 07:52:20;;;;;;;34.50;16.05;;;1.40;89.80;;;;;;5082998;28;20024;-70
2022/03/09 07:54:45;;;;;;;31.13;16.75;;;1.50;89.30;;;;;;5083336;28;20078;-71
2022/03/09 07:57:11;;;;;;;36.05;16.30;;;1.40;90.30;;;;;;5080833;28;20200;-70
2022/03/09 07:59:37;;;;;;;31.25;16.27;;;1.20;90.30;;;;;;5075121;28;20100;-70
2022/03/09 08:02:03;;;;;;;27.33;14.82;;;1.50;90.30;;;;;;5072702;28;20093;-70
2022/03/09 08:04:28;;;;;;;29.02;16.15;;;1.70;89.90;;;;;;5071766;28;20055;-70
2022/03/09 08:06:54;;;;;;;28.63;15.27;;;1.90;87.70;;;;;;5063035;28;20032;-70
2022/03/09 08:09:20;;;;;;;28.25;15.38;;;1.90;88.30;;;;;;5076814;28;20028;-71
2022/03/09 08:11:46;;;;;;;30.23;15.05;;;1.80;88.20;;;;;;5084954;28;20584;-71
2022/03/09 08:14:15;;;;;;;28.00;15.38;;;1.80;87.80;;;;;;5083099;28;20130;-70
2022/03/09 08:16:40;;;;;;;31.95;16.80;;;2.00;87.90;;;;;;5084435;28;20158;-70
2022/03/09 08:19:06;;;;;;;32.70;17.75;;;2.00;88.30;;;;;;5084043;28;20182;-71
2022/03/09 08:21:32;;;;;;;32.20;16.17;;;2.00;89.40;;;;;;5084516;28;20024;-70
2022/03/09 08:23:58;;;;;;;31.00;15.68;;;2.00;89.20;;;;;;5084433;28;20537;-70
2022/03/09 08:26:23;;;;;;;28.15;15.25;;;2.20;87.40;;;;;;5084901;28;20024;-70
2022/03/09 08:28:49;;;;;;;28.88;15.65;;;2.30;86.70;;;;;;5084164;28;21012;-70
2022/03/09 08:31:15;;;;;;;32.28;15.50;;;2.40;86.00;;;;;;5080493;28;20039;-71
2022/03/09 08:33:42;;;;;;;29.52;16.88;;;2.40;86.00;;;;;;5084298;28;20110;-70
2022/03/09 08:36:08;;;;;;;29.52;16.17;;;2.40;86.50;;;;;;5079565;28;20028;-70
2022/03/09 08:38:34;;;;;;;32.20;16.08;;;2.50;86.70;;;;;;5076150;28;20030;-70
2022/03/09 08:40:59;;;;;;;34.00;16.25;;;2.60;87.20;;;;;;5083180;28;20024;-70
2022/03/09 08:43:25;;;;;;;28.15;16.05;;;2.60;87.50;;;;;;5084418;28;20024;-70
2022/03/09 08:45:51;;;;;;;33.20;16.60;;;2.60;87.60;;;;;;5075488;28;20430;-70
2022/03/09 08:48:17;;;;;;;28.00;16.13;;;2.60;86.90;;;;;;5074287;28;20105;-70
2022/03/09 08:50:43;;;;;;;26.42;15.55;;;2.60;86.30;;;;;;5083454;28;20440;-70
2022/03/09 08:53:09;;;;;;;28.50;13.38;;;2.60;85.20;;;;;;5082250;28;20032;-70
2022/03/09 08:55:35;;;;;;;30.98;14.98;;;2.70;84.70;;;;;;5082121;28;20036;-70
2022/03/09 08:58:01;;;;;;;32.28;15.60;;;2.90;85.40;;;;;;5084098;28;20323;-70
2022/03/09 09:00:27;;;;;;;28.70;16.02;;;3.10;85.40;;;;;;5081832;28;20127;-70
2022/03/09 09:02:53;;;;;;;26.08;14.50;;;3.30;82.80;;;;;;5083808;28;20028;-70
2022/03/09 09:05:19;;;;;;;26.58;13.80;;;3.40;82.10;;;;;;5077590;28;20085;-70
2022/03/09 09:07:45;;;;;;;28.60;16.02;;;3.30;81.90;;;;;;5083230;28;20444;-70
2022/03/09 09:10:11;;;;;;;29.25;15.95;;;3.30;81.90;;;;;;5083060;28;20104;-71
2022/03/09 09:12:37;;;;;;;40.13;17.23;;;3.30;82.10;;;;;;5083147;28;20028;-70
2022/03/09 09:15:03;;;;;;;26.40;15.30;;;3.40;83.30;;;;;;5083960;28;20119;-70
2022/03/09 09:17:29;;;;;;;33.50;14.32;;;3.30;82.80;;;;;;5078825;28;20029;-70
2022/03/09 09:19:55;;;;;;;29.25;15.25;;;3.40;83.30;;;;;;5082353;28;20081;-70
2022/03/09 09:22:20;;;;;;;33.28;16.33;;;3.30;82.60;;;;;;5079294;28;20096;-71
2022/03/09 09:24:46;;;;;;;30.20;15.90;;;3.50;82.70;;;;;;5082248;28;20042;-70
2022/03/09 09:27:12;;;;;;;30.58;14.95;;;3.50;81.60;;;;;;5081760;28;20054;-70
2022/03/09 09:29:37;;;;;;;27.23;13.90;;;3.60;82.00;;;;;;5083199;28;20040;-70
2022/03/09 09:32:03;;;;;;;27.25;15.40;;;3.60;81.80;;;;;;5082428;28;20043;-70
2022/03/09 09:34:29;;;;;;;27.20;14.13;;;3.60;81.80;;;;;;5082011;28;20035;-71
2022/03/09 09:36:55;;;;;;;27.83;13.75;;;3.80;81.40;;;;;;5082917;28;20081;-71
2022/03/09 09:39:21;;;;;;;29.10;14.27;;;3.90;80.90;;;;;;5081544;28;20024;-70
2022/03/09 09:41:51;;;;;;;23.55;12.77;;;3.90;80.50;;;;;;5083546;28;20092;-70
2022/03/09 09:44:19;;;;;;;33.55;14.07;;;3.90;80.00;;;;;;5079873;28;20086;-70
2022/03/09 09:46:45;;;;;;;27.33;13.88;;;4.00;80.20;;;;;;5076269;28;20087;-70
2022/03/09 09:49:13;;;;;;;26.52;14.10;;;4.00;79.40;;;;;;5066417;28;20116;-71
2022/03/09 09:51:45;;;;;;;29.17;13.70;;;4.10;79.20;;;;;;5079150;28;20044;-70
2022/03/09 09:54:13;;;;;;;25.40;13.90;;;4.20;78.90;;;;;;5082776;28;20032;-70
2022/03/09 09:56:40;;;;;;;29.55;14.50;;;4.30;78.50;;;;;;5078550;28;20085;-70
2022/03/09 09:59:06;;;;;;;28.55;13.80;;;4.40;77.80;;;;;;5082993;28;20407;-71
2022/03/09 10:01:33;;;;;;;31.45;16.88;;;4.60;77.80;;;;;;5083581;28;20036;-71
2022/03/09 10:03:58;;;;;;;119.15;60.38;;;4.70;77.70;;;;;;5082922;28;20105;-71
2022/03/09 10:06:24;;;;;;;34.53;18.38;;;4.90;77.60;;;;;;5076830;28;20032;-70
2022/03/09 10:09:11;;;;;;;30.98;16.13;;;4.90;76.50;;;;;;5082370;28;20032;-70
2022/03/09 10:11:51;;;;;;;25.08;13.27;;;5.10;77.20;;;;;;5083400;28;20417;-70
2022/03/09 10:14:43;;;;;;;29.35;15.00;;;5.20;77.30;;;;;;5080763;28;20127;-71
2022/03/09 10:17:20;;;;;;;36.08;21.15;;;5.30;77.30;;;;;;5073330;28;20628;-70
2022/03/09 10:19:58;;;;;;;33.85;17.92;;;5.40;76.70;;;;;;5082976;28;20036;-70
2022/03/09 10:22:32;;;;;;;31.70;16.13;;;5.60;76.80;;;;;;5085005;28;20500;-70
2022/03/09 10:25:18;;;;;;;34.63;16.08;;;5.60;76.40;;;;;;5085646;28;20051;-70
2022/03/09 10:27:44;;;;;;;79.25;39.78;;;5.50;75.40;;;;;;5085913;28;20466;-70
2022/03/09 10:30:13;;;;;;;32.50;16.45;;;5.70;76.00;;;;;;5078327;28;20036;-70
2022/03/09 10:32:52;;;;;;;26.90;15.80;;;5.90;75.80;;;;;;5073246;28;20529;-70
2022/03/09 10:35:40;;;;;;;27.55;13.70;;;6.00;74.80;;;;;;5070601;28;20183;-71
2022/03/09 10:38:15;;;;;;;27.00;15.75;;;5.80;74.40;;;;;;5073050;28;20040;-70
2022/03/09 10:40:44;;;;;;;30.83;15.95;;;5.90;74.60;;;;;;5086009;28;20071;-72
2022/03/09 10:43:12;;;;;;;26.40;14.48;;;6.30;75.80;;;;;;5084303;28;20093;-70
2022/03/09 10:45:58;;;;;;;29.95;15.05;;;6.40;74.50;;;;;;5085993;28;20415;-70
2022/03/09 10:48:24;;;;;;;26.67;12.57;;;6.30;74.00;;;;;;5080743;28;20020;-70
2022/03/09 10:50:54;;;;;;;37.22;17.70;;;6.50;74.20;;;;;;5085994;28;20485;-70
2022/03/09 10:53:20;;;;;;;29.95;13.98;;;6.70;74.20;;;;;;5086247;28;20074;-71
2022/03/09 10:55:46;;;;;;;30.58;16.90;;;7.00;73.80;;;;;;5085420;28;20474;-70
2022/03/09 10:58:18;;;;;;;30.40;14.93;;;7.30;72.90;;;;;;5086197;28;20034;-70
2022/03/09 11:00:51;;;;;;;44.38;19.05;;;7.10;72.10;;;;;;5085501;28;20086;-70
2022/03/09 11:03:24;;;;;;;26.42;15.43;;;7.30;72.80;;;;;;5084278;28;20469;-70
2022/03/09 11:05:54;;;;;;;33.70;16.02;;;7.40;72.70;;;;;;5083918;28;20111;-70
2022/03/09 11:08:22;;;;;;;26.15;15.15;;;7.60;73.20;;;;;;5084232;28;20667;-70
2022/03/09 11:10:48;;;;;;;35.97;16.13;;;7.40;72.80;;;;;;5073317;28;20028;-71
2022/03/09 11:13:15;;;;;;;63.90;34.58;;;7.60;72.80;;;;;;5067366;28;20119;-71
2022/03/09 11:15:47;;;;;;;40.13;20.27;;;7.80;72.80;;;;;;5067090;28;20086;-70
2022/03/09 11:18:19;;;;;;;36.08;18.63;;;7.90;72.20;;;;;;5076307;28;20024;-71
2022/03/09 11:20:46;;;;;;;32.88;15.73;;;8.00;72.10;;;;;;5083249;28;20476;-70
2022/03/09 11:23:13;;;;;;;26.75;14.70;;;8.20;71.30;;;;;;5085490;28;20143;-70
2022/03/09 11:25:43;;;;;;;25.77;14.73;;;8.20;70.50;;;;;;5083756;28;20024;-70
2022/03/09 11:28:08;;;;;;;28.17;14.93;;;8.20;70.60;;;;;;5086827;28;20112;-70
2022/03/09 11:30:34;;;;;;;24.65;13.70;;;8.20;69.80;;;;;;5084707;28;20478;-72
2022/03/09 11:33:01;;;;;;;28.05;15.00;;;8.20;69.50;;;;;;5087640;28;20028;-70
2022/03/09 11:35:35;;;;;;;36.70;17.15;;;8.40;71.50;;;;;;5088520;28;20475;-70
2022/03/09 11:38:03;;;;;;;31.38;16.10;;;8.80;70.80;;;;;;5086607;28;20089;-71
2022/03/09 11:40:29;;;;;;;32.53;15.45;;;8.80;69.90;;;;;;5088305;28;20078;-70
2022/03/09 11:42:55;;;;;;;28.80;15.63;;;9.10;71.10;;;;;;5079577;28;20039;-71
2022/03/09 11:45:21;;;;;;;26.58;15.27;;;9.00;70.00;;;;;;5087546;28;20032;-70
2022/03/09 11:48:08;;;;;;;31.70;16.50;;;9.10;70.50;;;;;;5088467;28;20043;-70
2022/03/09 11:51:01;;;;;;;29.15;17.25;;;9.00;69.80;;;;;;5088482;28;20028;-70
2022/03/09 11:53:43;;;;;;;80.47;36.35;;;9.00;69.60;;;;;;5082158;28;20088;-71
2022/03/09 11:56:39;;;;;;;28.83;16.33;;;9.30;70.20;;;;;;5080436;28;20032;-71
2022/03/09 11:59:15;;;;;;;28.35;15.23;;;9.30;68.70;;;;;;5086688;28;20055;-71
2022/03/09 12:01:58;;;;;;;65.72;34.17;;;9.10;68.50;;;;;;5088047;28;20096;-71
2022/03/09 12:04:54;;;;;;;53.20;27.90;;;9.40;68.50;;;;;;5086508;28;20071;-70
2022/03/09 12:07:29;;;;;;;38.53;15.75;;;9.70;69.20;;;;;;5083672;28;20355;-72
2022/03/09 12:10:00;;;;;;;27.30;14.40;;;9.50;67.60;;;;;;5086905;28;20032;-71
2022/03/09 12:12:27;;;;;;;30.63;14.20;;;9.70;68.90;;;;;;5082462;28;20406;-70
2022/03/09 12:15:05;;;;;;;29.08;15.27;;;9.80;69.50;;;;;;5086741;28;20486;-71
2022/03/09 12:17:39;;;;;;;27.48;14.85;;;9.80;68.20;;;;;;5087023;28;20054;-71
2022/03/09 12:20:20;;;;;;;44.10;14.53;;;9.80;68.80;;;;;;5087175;28;20423;-70
2022/03/09 12:23:00;;;;;;;27.13;14.55;;;10.20;69.10;;;;;;5085394;28;20783;-71
2022/03/09 12:25:46;;;;;;;27.98;13.82;;;10.20;67.00;;;;;;5087451;28;20039;-70
2022/03/09 12:28:24;;;;;;;26.67;15.35;;;10.10;67.90;;;;;;5085127;28;20588;-71
2022/03/09 12:30:53;;;;;;;29.17;16.65;;;10.10;68.30;;;;;;5082401;28;20044;-72
2022/03/09 12:33:24;;;;;;;50.15;29.45;;;10.20;67.30;;;;;;5070909;28;20958;-71
2022/03/09 12:35:51;;;;;;;55.75;34.63;;;10.70;67.70;;;;;;5068546;28;20093;-71
2022/03/09 12:38:17;;;;;;;27.10;16.13;;;10.70;66.80;;;;;;5069197;28;20085;-71